sensor_id;sensor_type;location;lat;lon;timestamp;P1;durP1;ratioP1;P2;durP2;ratioP2
15454;SDS011;21057;51.024;7.540;2022-12-01T00:02:22;31.93;;;29.73;;
15454;SDS011;21057;51.024;7.540;2022-12-01T00:04:49;33.90;;;31.47;;
15454;SDS011;21057;51.024;7.540;2022-12-01T00:07:16;33.53;;;31.30;;
15454;SDS011;21057;51.024;7.540;2022-12-01T00:09:43;34.60;;;32.20;;
15454;SDS011;21057;51.024;7.540;2022-12-01T00:12:28;33.83;;;31.67;;
15454;SDS011;21057;51.024;7.540;2022-12-01T00:14:55;33.67;;;31.37;;
15454;SDS011;21057;51.024;7.540;2022-12-01T00:17:26;33.27;;;30.87;;
15454;SDS011;21057;51.024;7.540;2022-12-01T00:19:55;35.83;;;33.37;;
15454;SDS011;21057;51.024;7.540;2022-12-01T00:22:23;35.53;;;32.83;;
15454;SDS011;21057;51.024;7.540;2022-12-01T00:24:50;35.07;;;32.73;;
15454;SDS011;21057;51.024;7.540;2022-12-01T00:27:17;34.47;;;31.87;;
15454;SDS011;21057;51.024;7.540;2022-12-01T00:29:44;34.57;;;32.27;;
15454;SDS011;21057;51.024;7.540;2022-12-01T00:32:11;34.47;;;31.97;;
15454;SDS011;21057;51.024;7.540;2022-12-01T00:34:39;33.60;;;31.10;;
15454;SDS011;21057;51.024;7.540;2022-12-01T00:37:06;33.57;;;31.37;;
15454;SDS011;21057;51.024;7.540;2022-12-01T00:39:33;32.40;;;30.23;;
15454;SDS011;21057;51.024;7.540;2022-12-01T00:42:00;34.40;;;32.03;;
15454;SDS011;21057;51.024;7.540;2022-12-01T00:44:26;32.40;;;30.40;;
15454;SDS011;21057;51.024;7.540;2022-12-01T00:46:53;31.57;;;29.57;;
15454;SDS011;21057;51.024;7.540;2022-12-01T00:49:20;33.43;;;31.07;;
15454;SDS011;21057;51.024;7.540;2022-12-01T00:51:48;32.60;;;30.27;;
15454;SDS011;21057;51.024;7.540;2022-12-01T00:54:15;33.07;;;30.47;;
15454;SDS011;21057;51.024;7.540;2022-12-01T00:56:42;32.90;;;30.60;;
15454;SDS011;21057;51.024;7.540;2022-12-01T00:59:09;32.03;;;29.83;;
15454;SDS011;21057;51.024;7.540;2022-12-01T01:01:36;34.23;;;31.77;;
15454;SDS011;21057;51.024;7.540;2022-12-01T01:04:03;31.60;;;29.43;;
15454;SDS011;21057;51.024;7.540;2022-12-01T01:06:30;33.37;;;31.07;;
15454;SDS011;21057;51.024;7.540;2022-12-01T01:08:58;32.83;;;30.63;;
15454;SDS011;21057;51.024;7.540;2022-12-01T01:11:25;31.47;;;29.37;;
15454;SDS011;21057;51.024;7.540;2022-12-01T01:13:52;33.57;;;31.23;;
15454;SDS011;21057;51.024;7.540;2022-12-01T01:16:19;35.67;;;32.80;;
15454;SDS011;21057;51.024;7.540;2022-12-01T01:18:47;35.93;;;33.57;;
15454;SDS011;21057;51.024;7.540;2022-12-01T01:21:15;34.60;;;32.20;;
15454;SDS011;21057;51.024;7.540;2022-12-01T01:23:43;35.53;;;33.13;;
15454;SDS011;21057;51.024;7.540;2022-12-01T01:26:14;34.53;;;32.23;;
15454;SDS011;21057;51.024;7.540;2022-12-01T01:28:42;35.33;;;32.40;;
15454;SDS011;21057;51.024;7.540;2022-12-01T01:31:10;36.40;;;33.63;;
15454;SDS011;21057;51.024;7.540;2022-12-01T01:33:39;34.50;;;32.00;;
15454;SDS011;21057;51.024;7.540;2022-12-01T01:36:06;34.23;;;32.03;;
15454;SDS011;21057;51.024;7.540;2022-12-01T01:38:34;36.17;;;33.50;;
15454;SDS011;21057;51.024;7.540;2022-12-01T01:41:02;35.27;;;32.87;;
15454;SDS011;21057;51.024;7.540;2022-12-01T01:43:44;35.37;;;32.83;;
15454;SDS011;21057;51.024;7.540;2022-12-01T01:46:13;35.30;;;32.57;;
15454;SDS011;21057;51.024;7.540;2022-12-01T01:48:42;35.57;;;33.03;;
15454;SDS011;21057;51.024;7.540;2022-12-01T01:51:12;34.57;;;32.37;;
15454;SDS011;21057;51.024;7.540;2022-12-01T01:53:40;34.63;;;32.03;;
15454;SDS011;21057;51.024;7.540;2022-12-01T01:56:08;34.40;;;32.27;;
15454;SDS011;21057;51.024;7.540;2022-12-01T01:58:35;35.17;;;32.67;;
15454;SDS011;21057;51.024;7.540;2022-12-01T02:01:05;34.73;;;32.33;;
15454;SDS011;21057;51.024;7.540;2022-12-01T02:03:32;35.07;;;32.87;;
15454;SDS011;21057;51.024;7.540;2022-12-01T02:06:02;34.47;;;31.90;;
15454;SDS011;21057;51.024;7.540;2022-12-01T02:08:30;34.73;;;32.53;;
15454;SDS011;21057;51.024;7.540;2022-12-01T02:11:03;33.23;;;31.03;;
15454;SDS011;21057;51.024;7.540;2022-12-01T02:13:53;31.83;;;29.73;;
15454;SDS011;21057;51.024;7.540;2022-12-01T02:16:33;31.77;;;29.57;;
15454;SDS011;21057;51.024;7.540;2022-12-01T02:19:12;34.30;;;31.60;;
15454;SDS011;21057;51.024;7.540;2022-12-01T02:22:01;32.43;;;30.00;;
15454;SDS011;21057;51.024;7.540;2022-12-01T02:30:40;32.40;;;30.30;;
15454;SDS011;21057;51.024;7.540;2022-12-01T02:33:12;32.93;;;30.63;;
15454;SDS011;21057;51.024;7.540;2022-12-01T02:35:45;33.33;;;31.00;;
15454;SDS011;21057;51.024;7.540;2022-12-01T02:38:18;34.40;;;31.70;;
15454;SDS011;21057;51.024;7.540;2022-12-01T02:40:51;33.13;;;30.63;;
15454;SDS011;21057;51.024;7.540;2022-12-01T02:43:22;32.57;;;30.23;;
15454;SDS011;21057;51.024;7.540;2022-12-01T02:45:56;33.53;;;31.10;;
15454;SDS011;21057;51.024;7.540;2022-12-01T02:48:28;35.37;;;32.87;;
15454;SDS011;21057;51.024;7.540;2022-12-01T02:50:59;35.13;;;32.70;;
15454;SDS011;21057;51.024;7.540;2022-12-01T02:53:29;34.53;;;32.07;;
15454;SDS011;21057;51.024;7.540;2022-12-01T02:55:57;33.50;;;31.27;;
15454;SDS011;21057;51.024;7.540;2022-12-01T02:58:24;34.93;;;32.63;;
15454;SDS011;21057;51.024;7.540;2022-12-01T03:01:05;34.07;;;31.87;;
15454;SDS011;21057;51.024;7.540;2022-12-01T03:06:35;32.73;;;30.53;;
15454;SDS011;21057;51.024;7.540;2022-12-01T03:09:13;32.73;;;30.60;;
15454;SDS011;21057;51.024;7.540;2022-12-01T03:11:49;32.47;;;30.23;;
15454;SDS011;21057;51.024;7.540;2022-12-01T03:14:24;33.63;;;31.33;;
15454;SDS011;21057;51.024;7.540;2022-12-01T03:17:02;33.83;;;31.60;;
15454;SDS011;21057;51.024;7.540;2022-12-01T03:19:34;32.07;;;30.17;;
15454;SDS011;21057;51.024;7.540;2022-12-01T03:22:07;34.40;;;32.10;;
15454;SDS011;21057;51.024;7.540;2022-12-01T03:24:36;35.07;;;32.73;;
15454;SDS011;21057;51.024;7.540;2022-12-01T03:27:05;34.67;;;31.80;;
15454;SDS011;21057;51.024;7.540;2022-12-01T03:29:35;34.73;;;32.57;;
15454;SDS011;21057;51.024;7.540;2022-12-01T03:32:07;35.13;;;32.53;;
15454;SDS011;21057;51.024;7.540;2022-12-01T03:34:38;34.90;;;32.50;;
15454;SDS011;21057;51.024;7.540;2022-12-01T03:37:11;36.17;;;33.77;;
15454;SDS011;21057;51.024;7.540;2022-12-01T03:39:42;36.03;;;33.67;;
15454;SDS011;21057;51.024;7.540;2022-12-01T03:42:12;35.40;;;33.17;;
15454;SDS011;21057;51.024;7.540;2022-12-01T03:44:43;36.30;;;34.03;;
15454;SDS011;21057;51.024;7.540;2022-12-01T03:47:15;32.83;;;30.53;;
15454;SDS011;21057;51.024;7.540;2022-12-01T03:49:45;31.73;;;29.23;;
15454;SDS011;21057;51.024;7.540;2022-12-01T03:52:14;31.13;;;28.97;;
15454;SDS011;21057;51.024;7.540;2022-12-01T03:54:51;30.97;;;29.03;;
15454;SDS011;21057;51.024;7.540;2022-12-01T03:57:26;31.20;;;28.93;;
15454;SDS011;21057;51.024;7.540;2022-12-01T03:59:56;33.13;;;31.00;;
15454;SDS011;21057;51.024;7.540;2022-12-01T04:02:25;33.73;;;31.33;;
15454;SDS011;21057;51.024;7.540;2022-12-01T04:04:52;33.30;;;30.90;;
15454;SDS011;21057;51.024;7.540;2022-12-01T04:07:19;33.77;;;31.57;;
15454;SDS011;21057;51.024;7.540;2022-12-01T04:09:46;35.03;;;32.70;;
15454;SDS011;21057;51.024;7.540;2022-12-01T04:12:14;35.87;;;33.27;;
15454;SDS011;21057;51.024;7.540;2022-12-01T04:14:56;38.60;;;35.80;;
15454;SDS011;21057;51.024;7.540;2022-12-01T04:17:26;36.57;;;34.10;;
15454;SDS011;21057;51.024;7.540;2022-12-01T04:19:53;38.00;;;35.20;;
15454;SDS011;21057;51.024;7.540;2022-12-01T04:22:19;36.37;;;33.83;;
15454;SDS011;21057;51.024;7.540;2022-12-01T04:24:47;38.63;;;35.83;;
15454;SDS011;21057;51.024;7.540;2022-12-01T04:27:13;34.87;;;32.60;;
15454;SDS011;21057;51.024;7.540;2022-12-01T04:29:40;37.97;;;35.03;;
15454;SDS011;21057;51.024;7.540;2022-12-01T04:32:07;40.67;;;37.73;;
15454;SDS011;21057;51.024;7.540;2022-12-01T04:34:35;40.47;;;37.63;;
15454;SDS011;21057;51.024;7.540;2022-12-01T04:37:05;40.80;;;37.50;;
15454;SDS011;21057;51.024;7.540;2022-12-01T04:39:32;39.93;;;37.23;;
15454;SDS011;21057;51.024;7.540;2022-12-01T04:41:59;40.03;;;36.87;;
15454;SDS011;21057;51.024;7.540;2022-12-01T04:44:26;40.10;;;36.80;;
15454;SDS011;21057;51.024;7.540;2022-12-01T04:46:53;39.57;;;36.33;;
15454;SDS011;21057;51.024;7.540;2022-12-01T04:49:20;36.53;;;34.00;;
15454;SDS011;21057;51.024;7.540;2022-12-01T04:51:48;37.63;;;34.93;;
15454;SDS011;21057;51.024;7.540;2022-12-01T04:54:16;38.10;;;35.37;;
15454;SDS011;21057;51.024;7.540;2022-12-01T04:56:43;37.80;;;35.13;;
15454;SDS011;21057;51.024;7.540;2022-12-01T04:59:10;39.97;;;36.87;;
15454;SDS011;21057;51.024;7.540;2022-12-01T05:01:37;39.50;;;36.73;;
15454;SDS011;21057;51.024;7.540;2022-12-01T05:04:04;38.43;;;35.20;;
15454;SDS011;21057;51.024;7.540;2022-12-01T05:06:31;41.60;;;38.23;;
15454;SDS011;21057;51.024;7.540;2022-12-01T05:08:59;44.93;;;40.93;;
15454;SDS011;21057;51.024;7.540;2022-12-01T05:11:27;43.37;;;39.73;;
15454;SDS011;21057;51.024;7.540;2022-12-01T05:13:55;44.60;;;41.10;;
15454;SDS011;21057;51.024;7.540;2022-12-01T05:16:23;42.60;;;39.37;;
15454;SDS011;21057;51.024;7.540;2022-12-01T05:18:51;43.37;;;39.93;;
15454;SDS011;21057;51.024;7.540;2022-12-01T05:21:39;44.13;;;40.07;;
15454;SDS011;21057;51.024;7.540;2022-12-01T05:24:07;43.93;;;40.37;;
15454;SDS011;21057;51.024;7.540;2022-12-01T05:26:35;43.43;;;40.00;;
15454;SDS011;21057;51.024;7.540;2022-12-01T05:29:02;41.03;;;38.17;;
15454;SDS011;21057;51.024;7.540;2022-12-01T05:31:29;45.40;;;40.77;;
15454;SDS011;21057;51.024;7.540;2022-12-01T05:33:56;44.50;;;40.97;;
15454;SDS011;21057;51.024;7.540;2022-12-01T05:36:23;45.23;;;41.00;;
15454;SDS011;21057;51.024;7.540;2022-12-01T05:38:50;45.83;;;42.00;;
15454;SDS011;21057;51.024;7.540;2022-12-01T05:41:18;47.40;;;43.73;;
15454;SDS011;21057;51.024;7.540;2022-12-01T05:43:44;47.93;;;43.13;;
15454;SDS011;21057;51.024;7.540;2022-12-01T05:46:12;44.50;;;41.00;;
15454;SDS011;21057;51.024;7.540;2022-12-01T05:48:39;43.70;;;39.73;;
15454;SDS011;21057;51.024;7.540;2022-12-01T05:51:07;46.77;;;43.23;;
15454;SDS011;21057;51.024;7.540;2022-12-01T05:53:35;48.50;;;44.70;;
15454;SDS011;21057;51.024;7.540;2022-12-01T05:56:02;47.63;;;43.87;;
15454;SDS011;21057;51.024;7.540;2022-12-01T05:58:30;48.50;;;43.53;;
15454;SDS011;21057;51.024;7.540;2022-12-01T06:00:57;47.30;;;43.93;;
15454;SDS011;21057;51.024;7.540;2022-12-01T06:03:24;48.80;;;44.77;;
15454;SDS011;21057;51.024;7.540;2022-12-01T06:05:51;47.53;;;43.77;;
15454;SDS011;21057;51.024;7.540;2022-12-01T06:08:18;49.53;;;45.40;;
15454;SDS011;21057;51.024;7.540;2022-12-01T06:10:45;47.13;;;43.63;;
15454;SDS011;21057;51.024;7.540;2022-12-01T06:13:11;44.70;;;41.33;;
15454;SDS011;21057;51.024;7.540;2022-12-01T06:15:40;48.67;;;44.67;;
15454;SDS011;21057;51.024;7.540;2022-12-01T06:18:06;48.57;;;44.23;;
15454;SDS011;21057;51.024;7.540;2022-12-01T06:20:33;45.80;;;41.77;;
15454;SDS011;21057;51.024;7.540;2022-12-01T06:23:00;44.43;;;40.83;;
15454;SDS011;21057;51.024;7.540;2022-12-01T06:25:27;46.00;;;42.10;;
15454;SDS011;21057;51.024;7.540;2022-12-01T06:27:54;44.50;;;40.67;;
15454;SDS011;21057;51.024;7.540;2022-12-01T06:30:22;46.83;;;42.47;;
15454;SDS011;21057;51.024;7.540;2022-12-01T06:32:50;43.50;;;39.93;;
15454;SDS011;21057;51.024;7.540;2022-12-01T06:35:17;44.90;;;41.63;;
15454;SDS011;21057;51.024;7.540;2022-12-01T06:37:44;44.47;;;41.13;;
15454;SDS011;21057;51.024;7.540;2022-12-01T06:40:11;43.63;;;40.33;;
15454;SDS011;21057;51.024;7.540;2022-12-01T06:42:40;43.87;;;40.17;;
15454;SDS011;21057;51.024;7.540;2022-12-01T06:45:07;46.67;;;43.47;;
15454;SDS011;21057;51.024;7.540;2022-12-01T06:47:35;49.90;;;45.80;;
15454;SDS011;21057;51.024;7.540;2022-12-01T06:50:04;48.87;;;45.00;;
15454;SDS011;21057;51.024;7.540;2022-12-01T06:52:34;46.90;;;43.33;;
15454;SDS011;21057;51.024;7.540;2022-12-01T06:55:00;47.80;;;44.53;;
15454;SDS011;21057;51.024;7.540;2022-12-01T06:57:28;49.10;;;45.27;;
15454;SDS011;21057;51.024;7.540;2022-12-01T06:59:56;49.57;;;45.53;;
15454;SDS011;21057;51.024;7.540;2022-12-01T07:02:22;48.97;;;45.33;;
15454;SDS011;21057;51.024;7.540;2022-12-01T07:04:49;47.33;;;43.77;;
15454;SDS011;21057;51.024;7.540;2022-12-01T07:07:17;47.23;;;43.37;;
15454;SDS011;21057;51.024;7.540;2022-12-01T07:09:44;48.93;;;44.80;;
15454;SDS011;21057;51.024;7.540;2022-12-01T07:12:11;43.43;;;40.20;;
15454;SDS011;21057;51.024;7.540;2022-12-01T07:14:38;44.77;;;41.70;;
15454;SDS011;21057;51.024;7.540;2022-12-01T07:17:06;46.00;;;41.83;;
15454;SDS011;21057;51.024;7.540;2022-12-01T07:19:33;43.20;;;40.07;;
15454;SDS011;21057;51.024;7.540;2022-12-01T07:22:00;42.83;;;39.83;;
15454;SDS011;21057;51.024;7.540;2022-12-01T07:24:28;43.17;;;39.87;;
15454;SDS011;21057;51.024;7.540;2022-12-01T07:26:55;42.60;;;39.53;;
15454;SDS011;21057;51.024;7.540;2022-12-01T07:29:22;43.27;;;40.30;;
15454;SDS011;21057;51.024;7.540;2022-12-01T07:31:48;42.70;;;39.67;;
15454;SDS011;21057;51.024;7.540;2022-12-01T07:34:15;42.87;;;39.80;;
15454;SDS011;21057;51.024;7.540;2022-12-01T07:36:42;43.83;;;41.00;;
15454;SDS011;21057;51.024;7.540;2022-12-01T07:39:09;38.77;;;35.30;;
15454;SDS011;21057;51.024;7.540;2022-12-01T07:41:38;39.27;;;36.07;;
15454;SDS011;21057;51.024;7.540;2022-12-01T07:44:05;38.80;;;35.07;;
15454;SDS011;21057;51.024;7.540;2022-12-01T07:46:31;36.77;;;33.63;;
15454;SDS011;21057;51.024;7.540;2022-12-01T07:48:58;37.80;;;34.93;;
15454;SDS011;21057;51.024;7.540;2022-12-01T07:51:25;38.03;;;34.80;;
15454;SDS011;21057;51.024;7.540;2022-12-01T07:53:53;35.30;;;32.90;;
15454;SDS011;21057;51.024;7.540;2022-12-01T07:56:20;39.77;;;36.47;;
15454;SDS011;21057;51.024;7.540;2022-12-01T07:58:49;41.40;;;37.93;;
15454;SDS011;21057;51.024;7.540;2022-12-01T08:01:16;36.67;;;33.83;;
15454;SDS011;21057;51.024;7.540;2022-12-01T08:03:44;38.77;;;35.90;;
15454;SDS011;21057;51.024;7.540;2022-12-01T08:06:13;40.03;;;37.17;;
15454;SDS011;21057;51.024;7.540;2022-12-01T08:08:40;39.13;;;36.40;;
15454;SDS011;21057;51.024;7.540;2022-12-01T08:11:09;39.30;;;36.50;;
15454;SDS011;21057;51.024;7.540;2022-12-01T08:13:37;39.97;;;36.70;;
15454;SDS011;21057;51.024;7.540;2022-12-01T08:16:06;40.17;;;37.37;;
15454;SDS011;21057;51.024;7.540;2022-12-01T08:18:35;40.93;;;37.80;;
15454;SDS011;21057;51.024;7.540;2022-12-01T08:21:03;37.70;;;35.03;;
15454;SDS011;21057;51.024;7.540;2022-12-01T08:23:31;38.53;;;35.43;;
15454;SDS011;21057;51.024;7.540;2022-12-01T08:25:59;39.53;;;36.50;;
15454;SDS011;21057;51.024;7.540;2022-12-01T08:28:26;39.93;;;36.50;;
15454;SDS011;21057;51.024;7.540;2022-12-01T08:30:53;38.20;;;35.27;;
15454;SDS011;21057;51.024;7.540;2022-12-01T08:33:21;37.07;;;34.03;;
15454;SDS011;21057;51.024;7.540;2022-12-01T08:35:48;37.13;;;34.57;;
15454;SDS011;21057;51.024;7.540;2022-12-01T08:38:15;36.70;;;33.83;;
15454;SDS011;21057;51.024;7.540;2022-12-01T08:40:42;36.20;;;33.37;;
15454;SDS011;21057;51.024;7.540;2022-12-01T08:43:09;36.57;;;33.60;;
15454;SDS011;21057;51.024;7.540;2022-12-01T08:45:36;35.97;;;33.40;;
15454;SDS011;21057;51.024;7.540;2022-12-01T08:48:03;38.97;;;36.10;;
15454;SDS011;21057;51.024;7.540;2022-12-01T08:50:31;37.33;;;34.43;;
15454;SDS011;21057;51.024;7.540;2022-12-01T08:52:58;35.33;;;32.60;;
15454;SDS011;21057;51.024;7.540;2022-12-01T08:55:24;35.93;;;33.13;;
15454;SDS011;21057;51.024;7.540;2022-12-01T08:57:51;37.23;;;34.20;;
15454;SDS011;21057;51.024;7.540;2022-12-01T09:00:18;35.90;;;33.33;;
15454;SDS011;21057;51.024;7.540;2022-12-01T09:02:45;37.83;;;35.10;;
15454;SDS011;21057;51.024;7.540;2022-12-01T09:05:12;39.60;;;36.30;;
15454;SDS011;21057;51.024;7.540;2022-12-01T09:07:40;38.53;;;35.73;;
15454;SDS011;21057;51.024;7.540;2022-12-01T09:10:09;35.93;;;33.33;;
15454;SDS011;21057;51.024;7.540;2022-12-01T09:12:37;37.23;;;34.47;;
15454;SDS011;21057;51.024;7.540;2022-12-01T09:15:04;36.73;;;34.33;;
15454;SDS011;21057;51.024;7.540;2022-12-01T09:17:31;37.17;;;34.50;;
15454;SDS011;21057;51.024;7.540;2022-12-01T09:19:58;36.17;;;33.57;;
15454;SDS011;21057;51.024;7.540;2022-12-01T09:22:25;37.50;;;34.77;;
15454;SDS011;21057;51.024;7.540;2022-12-01T09:24:53;36.23;;;33.47;;
15454;SDS011;21057;51.024;7.540;2022-12-01T09:27:20;38.57;;;35.67;;
15454;SDS011;21057;51.024;7.540;2022-12-01T09:29:47;37.23;;;34.27;;
15454;SDS011;21057;51.024;7.540;2022-12-01T09:32:14;36.87;;;34.30;;
15454;SDS011;21057;51.024;7.540;2022-12-01T09:34:41;39.33;;;36.37;;
15454;SDS011;21057;51.024;7.540;2022-12-01T09:37:07;36.77;;;33.77;;
15454;SDS011;21057;51.024;7.540;2022-12-01T09:39:34;39.20;;;36.20;;
15454;SDS011;21057;51.024;7.540;2022-12-01T09:42:03;36.97;;;34.20;;
15454;SDS011;21057;51.024;7.540;2022-12-01T09:44:34;35.13;;;32.23;;
15454;SDS011;21057;51.024;7.540;2022-12-01T09:47:06;35.30;;;32.27;;
15454;SDS011;21057;51.024;7.540;2022-12-01T09:49:48;35.90;;;32.73;;
15454;SDS011;21057;51.024;7.540;2022-12-01T09:52:20;34.77;;;32.17;;
15454;SDS011;21057;51.024;7.540;2022-12-01T09:54:51;32.97;;;30.47;;
15454;SDS011;21057;51.024;7.540;2022-12-01T09:57:24;33.93;;;31.00;;
15454;SDS011;21057;51.024;7.540;2022-12-01T09:59:54;32.23;;;29.47;;
15454;SDS011;21057;51.024;7.540;2022-12-01T10:02:27;33.27;;;30.47;;
15454;SDS011;21057;51.024;7.540;2022-12-01T10:04:59;30.03;;;27.40;;
15454;SDS011;21057;51.024;7.540;2022-12-01T10:07:29;29.97;;;27.43;;
15454;SDS011;21057;51.024;7.540;2022-12-01T10:10:00;30.13;;;27.33;;
15454;SDS011;21057;51.024;7.540;2022-12-01T10:12:31;36.43;;;28.37;;
15454;SDS011;21057;51.024;7.540;2022-12-01T10:15:01;29.70;;;26.97;;
15454;SDS011;21057;51.024;7.540;2022-12-01T10:17:41;31.07;;;28.10;;
15454;SDS011;21057;51.024;7.540;2022-12-01T10:20:15;30.80;;;27.67;;
15454;SDS011;21057;51.024;7.540;2022-12-01T10:22:56;32.47;;;29.70;;
15454;SDS011;21057;51.024;7.540;2022-12-01T10:25:42;32.83;;;29.70;;
15454;SDS011;21057;51.024;7.540;2022-12-01T10:28:23;34.63;;;29.37;;
15454;SDS011;21057;51.024;7.540;2022-12-01T10:31:08;33.17;;;30.23;;
15454;SDS011;21057;51.024;7.540;2022-12-01T10:33:43;33.93;;;30.57;;
15454;SDS011;21057;51.024;7.540;2022-12-01T10:36:27;35.97;;;32.27;;
15454;SDS011;21057;51.024;7.540;2022-12-01T10:38:54;32.13;;;29.10;;
15454;SDS011;21057;51.024;7.540;2022-12-01T10:41:21;32.37;;;29.50;;
15454;SDS011;21057;51.024;7.540;2022-12-01T10:43:53;33.40;;;29.80;;
15454;SDS011;21057;51.024;7.540;2022-12-01T10:46:26;33.33;;;30.07;;
15454;SDS011;21057;51.024;7.540;2022-12-01T10:48:59;37.20;;;30.20;;
15454;SDS011;21057;51.024;7.540;2022-12-01T10:51:44;30.90;;;28.47;;
15454;SDS011;21057;51.024;7.540;2022-12-01T10:54:18;33.17;;;30.37;;
15454;SDS011;21057;51.024;7.540;2022-12-01T10:56:48;32.30;;;29.53;;
15454;SDS011;21057;51.024;7.540;2022-12-01T10:59:29;31.73;;;28.97;;
15454;SDS011;21057;51.024;7.540;2022-12-01T11:01:59;33.20;;;29.97;;
15454;SDS011;21057;51.024;7.540;2022-12-01T11:04:37;31.57;;;28.80;;
15454;SDS011;21057;51.024;7.540;2022-12-01T11:07:17;31.87;;;28.93;;
15454;SDS011;21057;51.024;7.540;2022-12-01T11:09:47;33.63;;;30.10;;
15454;SDS011;21057;51.024;7.540;2022-12-01T11:12:28;31.53;;;28.90;;
15454;SDS011;21057;51.024;7.540;2022-12-01T11:14:56;33.73;;;30.20;;
15454;SDS011;21057;51.024;7.540;2022-12-01T11:17:25;34.53;;;31.23;;
15454;SDS011;21057;51.024;7.540;2022-12-01T11:19:54;34.00;;;30.73;;
15454;SDS011;21057;51.024;7.540;2022-12-01T11:22:21;34.27;;;30.73;;
15454;SDS011;21057;51.024;7.540;2022-12-01T11:25:00;38.60;;;31.90;;
15454;SDS011;21057;51.024;7.540;2022-12-01T11:27:29;34.87;;;31.37;;
15454;SDS011;21057;51.024;7.540;2022-12-01T11:30:02;35.10;;;31.80;;
15454;SDS011;21057;51.024;7.540;2022-12-01T11:32:32;34.73;;;31.30;;
15454;SDS011;21057;51.024;7.540;2022-12-01T11:35:03;35.23;;;31.50;;
15454;SDS011;21057;51.024;7.540;2022-12-01T11:37:34;35.10;;;31.60;;
15454;SDS011;21057;51.024;7.540;2022-12-01T11:40:07;36.87;;;29.97;;
15454;SDS011;21057;51.024;7.540;2022-12-01T11:42:40;35.00;;;31.47;;
15454;SDS011;21057;51.024;7.540;2022-12-01T11:45:22;34.33;;;29.67;;
15454;SDS011;21057;51.024;7.540;2022-12-01T11:48:04;35.83;;;28.80;;
15454;SDS011;21057;51.024;7.540;2022-12-01T11:50:32;32.67;;;29.57;;
15454;SDS011;21057;51.024;7.540;2022-12-01T11:53:01;36.33;;;28.70;;
15454;SDS011;21057;51.024;7.540;2022-12-01T11:55:29;31.90;;;28.50;;
15454;SDS011;21057;51.024;7.540;2022-12-01T11:57:57;33.83;;;30.07;;
15454;SDS011;21057;51.024;7.540;2022-12-01T12:00:28;32.13;;;28.83;;
15454;SDS011;21057;51.024;7.540;2022-12-01T12:03:05;30.83;;;27.57;;
15454;SDS011;21057;51.024;7.540;2022-12-01T12:05:51;33.90;;;29.33;;
15454;SDS011;21057;51.024;7.540;2022-12-01T12:08:40;36.77;;;29.40;;
15454;SDS011;21057;51.024;7.540;2022-12-01T12:11:18;31.90;;;28.63;;
15454;SDS011;21057;51.024;7.540;2022-12-01T12:13:58;29.63;;;26.47;;
15454;SDS011;21057;51.024;7.540;2022-12-01T12:16:40;31.17;;;27.90;;
15454;SDS011;21057;51.024;7.540;2022-12-01T12:19:30;27.93;;;25.33;;
15454;SDS011;21057;51.024;7.540;2022-12-01T12:22:11;29.97;;;26.87;;
15454;SDS011;21057;51.024;7.540;2022-12-01T12:24:50;34.43;;;29.10;;
15454;SDS011;21057;51.024;7.540;2022-12-01T12:27:26;31.43;;;28.47;;
15454;SDS011;21057;51.024;7.540;2022-12-01T12:30:05;32.60;;;29.43;;
15454;SDS011;21057;51.024;7.540;2022-12-01T12:32:45;29.33;;;26.40;;
15454;SDS011;21057;51.024;7.540;2022-12-01T12:35:34;33.23;;;28.47;;
15454;SDS011;21057;51.024;7.540;2022-12-01T12:38:12;31.10;;;26.87;;
15454;SDS011;21057;51.024;7.540;2022-12-01T12:40:53;33.50;;;29.77;;
15454;SDS011;21057;51.024;7.540;2022-12-01T12:43:26;35.67;;;32.10;;
15454;SDS011;21057;51.024;7.540;2022-12-01T12:46:03;35.40;;;30.23;;
15454;SDS011;21057;51.024;7.540;2022-12-01T12:48:48;35.53;;;31.17;;
15454;SDS011;21057;51.024;7.540;2022-12-01T12:51:27;34.50;;;30.90;;
15454;SDS011;21057;51.024;7.540;2022-12-01T12:54:01;31.67;;;28.33;;
15454;SDS011;21057;51.024;7.540;2022-12-01T12:56:39;35.03;;;31.10;;
15454;SDS011;21057;51.024;7.540;2022-12-01T12:59:09;39.60;;;31.37;;
15454;SDS011;21057;51.024;7.540;2022-12-01T13:01:40;39.17;;;32.57;;
15454;SDS011;21057;51.024;7.540;2022-12-01T13:04:11;40.13;;;32.77;;
15454;SDS011;21057;51.024;7.540;2022-12-01T13:06:44;42.70;;;32.43;;
15454;SDS011;21057;51.024;7.540;2022-12-01T13:09:17;38.90;;;32.57;;
15454;SDS011;21057;51.024;7.540;2022-12-01T13:11:49;33.47;;;30.17;;
15454;SDS011;21057;51.024;7.540;2022-12-01T13:14:23;33.77;;;30.43;;
15454;SDS011;21057;51.024;7.540;2022-12-01T13:16:56;34.90;;;31.27;;
15454;SDS011;21057;51.024;7.540;2022-12-01T13:19:29;47.77;;;30.60;;
15454;SDS011;21057;51.024;7.540;2022-12-01T13:21:59;36.17;;;31.00;;
15454;SDS011;21057;51.024;7.540;2022-12-01T13:24:27;35.77;;;31.90;;
15454;SDS011;21057;51.024;7.540;2022-12-01T13:26:56;37.27;;;30.43;;
15454;SDS011;21057;51.024;7.540;2022-12-01T13:29:26;33.00;;;29.50;;
15454;SDS011;21057;51.024;7.540;2022-12-01T13:31:55;37.43;;;30.60;;
15454;SDS011;21057;51.024;7.540;2022-12-01T13:34:23;32.00;;;28.73;;
15454;SDS011;21057;51.024;7.540;2022-12-01T13:36:55;34.60;;;30.93;;
15454;SDS011;21057;51.024;7.540;2022-12-01T13:39:22;31.90;;;28.80;;
15454;SDS011;21057;51.024;7.540;2022-12-01T13:41:57;33.60;;;30.10;;
15454;SDS011;21057;51.024;7.540;2022-12-01T13:44:29;34.37;;;30.67;;
15454;SDS011;21057;51.024;7.540;2022-12-01T13:47:00;39.60;;;30.50;;
15454;SDS011;21057;51.024;7.540;2022-12-01T13:49:39;39.40;;;28.70;;
15454;SDS011;21057;51.024;7.540;2022-12-01T13:52:26;32.47;;;29.53;;
15454;SDS011;21057;51.024;7.540;2022-12-01T13:54:58;36.60;;;32.60;;
15454;SDS011;21057;51.024;7.540;2022-12-01T13:57:29;34.70;;;30.80;;
15454;SDS011;21057;51.024;7.540;2022-12-01T14:00:01;39.57;;;30.80;;
15454;SDS011;21057;51.024;7.540;2022-12-01T14:02:46;36.93;;;30.27;;
15454;SDS011;21057;51.024;7.540;2022-12-01T14:05:55;36.13;;;32.83;;
15454;SDS011;21057;51.024;7.540;2022-12-01T14:08:33;35.00;;;31.37;;
15454;SDS011;21057;51.024;7.540;2022-12-01T14:11:03;36.10;;;32.57;;
15454;SDS011;21057;51.024;7.540;2022-12-01T14:13:41;35.27;;;31.57;;
15454;SDS011;21057;51.024;7.540;2022-12-01T14:16:11;40.27;;;34.10;;
15454;SDS011;21057;51.024;7.540;2022-12-01T14:18:39;39.63;;;32.27;;
15454;SDS011;21057;51.024;7.540;2022-12-01T14:21:09;44.93;;;33.63;;
15454;SDS011;21057;51.024;7.540;2022-12-01T14:23:57;40.50;;;35.77;;
15454;SDS011;21057;51.024;7.540;2022-12-01T14:26:25;33.20;;;30.43;;
15454;SDS011;21057;51.024;7.540;2022-12-01T14:34:54;36.80;;;32.60;;
15454;SDS011;21057;51.024;7.540;2022-12-01T14:37:25;35.73;;;32.03;;
15454;SDS011;21057;51.024;7.540;2022-12-01T14:40:04;35.70;;;32.13;;
15454;SDS011;21057;51.024;7.540;2022-12-01T14:42:34;35.90;;;32.17;;
15454;SDS011;21057;51.024;7.540;2022-12-01T14:45:21;38.43;;;33.20;;
15454;SDS011;21057;51.024;7.540;2022-12-01T14:47:51;36.37;;;33.10;;
15454;SDS011;21057;51.024;7.540;2022-12-01T14:50:28;36.83;;;33.37;;
15454;SDS011;21057;51.024;7.540;2022-12-01T14:53:02;36.90;;;31.03;;
15454;SDS011;21057;51.024;7.540;2022-12-01T14:55:36;42.03;;;31.30;;
15454;SDS011;21057;51.024;7.540;2022-12-01T14:58:05;33.70;;;30.23;;